Time;durP1;ratioP1;P1;durP2;ratioP2;P2;SDS_P1;SDS_P2;PMS_P1;PMS_P2;Temp;Humidity;BMP_temperature;BMP_pressure;BME280_temperature;BME280_humidity;BME280_pressure;Samples;Min_cycle;Max_cycle;Signal;HPM_P1;HPM_P2
2023/07/18 00:01:58;;;;;;;4.80;3.08;;;;;;;23.98;100.00;100514.22;5546966;32;32808;-62
2023/07/18 00:05:02;;;;;;;5.25;3.25;;;;;;;23.81;100.00;100503.44;5546587;32;33998;-61
2023/07/18 00:08:05;;;;;;;7.50;3.28;;;;;;;23.73;100.00;100506.56;5546977;32;33917;-62
2023/07/18 00:11:09;;;;;;;5.65;3.15;;;;;;;23.80;100.00;100508.06;5549237;32;33801;-62
2023/07/18 00:14:11;;;;;;;6.78;3.00;;;;;;;23.69;100.00;100508.16;5549193;32;33890;-62
2023/07/18 00:17:15;;;;;;;6.75;2.95;;;;;;;23.61;100.00;100511.31;5549174;32;34287;-62
2023/07/18 00:20:18;;;;;;;5.60;2.80;;;;;;;23.53;100.00;100509.03;5549001;32;33641;-61
2023/07/18 00:23:21;;;;;;;5.35;2.75;;;;;;;23.48;100.00;100517.09;5549259;32;35187;-62
2023/07/18 00:26:24;;;;;;;4.68;2.75;;;;;;;23.42;100.00;100518.03;5548498;32;33831;-62
2023/07/18 00:29:27;;;;;;;6.10;2.75;;;;;;;23.40;100.00;100523.69;5535146;32;34094;-61
2023/07/18 00:32:30;;;;;;;6.15;2.83;;;;;;;23.36;100.00;100523.38;5549212;32;34377;-62
2023/07/18 00:35:34;;;;;;;5.53;2.80;;;;;;;23.39;100.00;100509.34;5548942;32;33836;-61
2023/07/18 00:38:37;;;;;;;4.12;2.92;;;;;;;23.37;100.00;100502.53;5535276;32;34214;-62
2023/07/18 00:41:40;;;;;;;3.50;2.70;;;;;;;23.36;100.00;100500.91;5548825;32;33795;-62
2023/07/18 00:44:43;;;;;;;4.90;2.70;;;;;;;23.47;100.00;100501.91;5548736;32;33623;-62
2023/07/18 00:47:46;;;;;;;5.75;2.70;;;;;;;23.46;100.00;100502.97;5535033;32;33934;-62
2023/07/18 00:50:49;;;;;;;4.15;2.83;;;;;;;23.43;100.00;100498.81;5548927;32;33355;-62
2023/07/18 00:53:53;;;;;;;7.50;3.10;;;;;;;23.48;100.00;100500.84;5548855;32;33364;-62
2023/07/18 00:56:56;;;;;;;6.95;3.17;;;;;;;23.37;100.00;100494.41;5548803;32;33682;-62
2023/07/18 00:59:59;;;;;;;3.85;2.70;;;;;;;23.32;100.00;100484.34;5535272;32;34066;-62
2023/07/18 01:03:02;;;;;;;4.85;2.95;;;;;;;23.40;100.00;100491.19;5548744;32;34620;-62
2023/07/18 01:06:06;;;;;;;5.20;2.87;;;;;;;23.29;100.00;100492.13;5548587;32;34319;-62
2023/07/18 01:09:09;;;;;;;5.70;2.78;;;;;;;23.26;100.00;100500.75;5548650;32;33948;-62
2023/07/18 01:12:12;;;;;;;4.50;2.60;;;;;;;23.25;100.00;100488.28;5548365;32;33646;-62
2023/07/18 01:15:16;;;;;;;6.72;3.10;;;;;;;23.19;100.00;100495.50;5548239;32;33987;-62
2023/07/18 01:18:20;;;;;;;4.12;3.17;;;;;;;23.14;100.00;100497.31;5534735;32;33869;-62
2023/07/18 01:21:23;;;;;;;4.97;3.05;;;;;;;23.02;100.00;100499.28;5547156;32;33569;-62
2023/07/18 01:24:28;;;;;;;3.50;2.80;;;;;;;22.95;100.00;100502.16;5548223;32;33927;-62
2023/07/18 01:27:31;;;;;;;3.95;3.00;;;;;;;22.93;100.00;100501.59;5548265;32;33826;-62
2023/07/18 01:30:34;;;;;;;4.65;2.80;;;;;;;22.86;100.00;100501.75;5535111;32;32883;-62
2023/07/18 01:33:38;;;;;;;5.60;2.95;;;;;;;22.84;100.00;100501.19;5548474;32;34499;-62
2023/07/18 01:36:41;;;;;;;5.93;3.12;;;;;;;22.82;100.00;100494.34;5522009;32;33127;-62
2023/07/18 01:39:47;;;;;;;6.62;2.90;;;;;;;22.92;100.00;100491.81;5548496;32;33654;-62
2023/07/18 01:42:54;;;;;;;10.07;3.03;;;;;;;23.05;100.00;100493.38;5548484;32;34474;-62
2023/07/18 01:45:59;;;;;;;4.03;2.80;;;;;;;23.02;100.00;100492.00;5548412;32;33507;-62
2023/07/18 01:49:03;;;;;;;5.43;2.85;;;;;;;22.92;100.00;100500.75;5548182;32;34551;-62
2023/07/18 01:52:06;;;;;;;3.42;2.60;;;;;;;22.86;100.00;100490.91;5548608;32;34243;-62
2023/07/18 01:55:09;;;;;;;5.57;2.78;;;;;;;22.87;100.00;100492.56;5548610;32;34293;-62
2023/07/18 01:58:12;;;;;;;3.67;2.90;;;;;;;22.81;100.00;100488.13;5548267;32;33921;-62
2023/07/18 02:01:15;;;;;;;5.12;2.55;;;;;;;22.78;100.00;100485.09;5548354;32;34126;-62
2023/07/18 02:04:19;;;;;;;6.65;3.03;;;;;;;22.77;100.00;100491.56;5534543;32;34623;-62
2023/07/18 02:07:22;;;;;;;4.43;2.60;;;;;;;22.83;100.00;100496.84;5548420;32;33850;-62
2023/07/18 02:10:26;;;;;;;4.22;2.70;;;;;;;22.97;100.00;100494.63;5548370;32;33697;-62
2023/07/18 02:13:29;;;;;;;5.18;2.50;;;;;;;23.03;100.00;100498.22;5548129;32;33614;-62
2023/07/18 02:16:32;;;;;;;6.37;2.80;;;;;;;23.14;100.00;100508.16;5548148;32;33464;-62
2023/07/18 02:19:36;;;;;;;7.37;2.83;;;;;;;23.23;100.00;100520.19;5548266;32;33884;-62
2023/07/18 02:22:41;;;;;;;3.75;2.42;;;;;;;23.26;100.00;100527.81;5548111;32;33897;-62
2023/07/18 02:25:47;;;;;;;5.43;2.70;;;;;;;23.30;100.00;100524.38;5547968;32;32710;-62
2023/07/18 02:28:50;;;;;;;3.95;2.67;;;;;;;23.34;100.00;100528.22;5534307;32;34047;-62
2023/07/18 02:31:53;;;;;;;3.87;2.62;;;;;;;23.37;100.00;100529.63;5547328;32;33743;-62
2023/07/18 02:34:57;;;;;;;3.35;2.70;;;;;;;23.42;100.00;100529.69;5547973;32;33911;-62
2023/07/18 02:38:00;;;;;;;5.55;2.75;;;;;;;23.32;100.00;100535.78;5547882;32;33822;-63
2023/07/18 02:41:03;;;;;;;7.15;2.72;;;;;;;23.32;100.00;100543.91;5547864;32;33850;-62
2023/07/18 02:44:06;;;;;;;7.57;2.90;;;;;;;23.36;100.00;100534.22;5534012;32;32764;-62
2023/07/18 02:47:10;;;;;;;4.37;2.70;;;;;;;23.37;100.00;100552.09;5534177;32;33894;-62
2023/07/18 02:50:13;;;;;;;7.65;2.92;;;;;;;23.44;100.00;100559.22;5547668;32;33956;-62
2023/07/18 02:53:15;;;;;;;4.40;2.87;;;;;;;23.41;100.00;100563.25;5547659;32;34072;-62
2023/07/18 02:56:18;;;;;;;5.32;2.78;;;;;;;23.37;100.00;100562.94;5534115;32;33705;-62
2023/07/18 02:59:22;;;;;;;3.67;2.90;;;;;;;23.29;100.00;100559.78;5521151;32;33590;-62
2023/07/18 03:02:25;;;;;;;8.88;3.40;;;;;;;23.34;100.00;100560.69;5547491;32;34172;-62
2023/07/18 03:05:29;;;;;;;6.72;3.20;;;;;;;23.34;100.00;100560.69;5547663;32;33617;-62
2023/07/18 03:08:32;;;;;;;4.62;3.12;;;;;;;23.32;100.00;100562.03;5547395;32;33818;-62
2023/07/18 03:11:35;;;;;;;5.07;3.00;;;;;;;23.39;100.00;100565.38;5547383;32;33874;-63
2023/07/18 03:14:39;;;;;;;5.97;3.20;;;;;;;23.50;100.00;100569.91;5547237;32;33972;-62
2023/07/18 03:17:42;;;;;;;4.62;3.15;;;;;;;23.71;100.00;100566.44;5547663;32;34099;-62
2023/07/18 03:20:45;;;;;;;7.20;3.05;;;;;;;23.90;100.00;100566.16;5547529;32;33913;-62
2023/07/18 03:23:48;;;;;;;6.03;3.08;;;;;;;23.92;100.00;100572.13;5533882;32;33813;-64
2023/07/18 03:26:52;;;;;;;6.05;3.20;;;;;;;23.94;100.00;100565.41;5547056;32;33590;-63
2023/07/18 03:29:58;;;;;;;5.10;3.05;;;;;;;23.97;100.00;100569.47;5547231;32;33813;-62
2023/07/18 03:33:01;;;;;;;6.28;3.15;;;;;;;24.01;100.00;100567.94;5547275;32;34169;-63
2023/07/18 03:36:05;;;;;;;8.52;3.20;;;;;;;24.03;100.00;100560.34;5546861;32;33725;-63
2023/07/18 03:39:08;;;;;;;5.47;3.00;;;;;;;24.07;100.00;100561.47;5547361;32;33885;-62
2023/07/18 03:42:12;;;;;;;3.72;2.80;;;;;;;24.01;100.00;100562.50;5533421;32;33404;-62
2023/07/18 03:45:16;;;;;;;7.35;3.25;;;;;;;24.03;100.00;100565.78;5535217;32;35772;-62
2023/07/18 03:48:19;;;;;;;6.57;3.10;;;;;;;23.97;100.00;100561.34;5548999;32;33799;-62
2023/07/18 03:51:22;;;;;;;6.43;3.47;;;;;;;23.88;100.00;100557.44;5549490;32;33309;-62
2023/07/18 03:54:32;;;;;;;8.25;3.30;;;;;;;23.86;100.00;100573.97;5549183;32;33859;-61
2023/07/18 03:57:39;;;;;;;7.43;3.45;;;;;;;23.90;100.00;100576.97;5549043;32;34407;-64
2023/07/18 04:00:42;;;;;;;6.55;3.25;;;;;;;23.81;100.00;100582.03;5535829;32;33577;-62
2023/07/18 04:03:45;;;;;;;6.22;3.30;;;;;;;23.86;100.00;100584.81;5549115;32;34791;-62
2023/07/18 04:06:49;;;;;;;7.28;3.20;;;;;;;23.80;100.00;100577.66;5549464;32;34747;-62
2023/07/18 04:09:51;;;;;;;7.35;3.47;;;;;;;23.81;100.00;100574.72;5535337;32;34145;-62
2023/07/18 04:12:55;;;;;;;5.20;3.28;;;;;;;23.91;100.00;100565.09;5548913;32;33795;-61
2023/07/18 04:15:57;;;;;;;6.50;3.50;;;;;;;24.00;100.00;100577.94;5549197;32;33902;-61
2023/07/18 04:19:00;;;;;;;7.90;3.30;;;;;;;24.03;100.00;100580.16;5549066;32;33762;-61
2023/07/18 04:22:04;;;;;;;18.02;3.85;;;;;;;24.12;100.00;100580.53;5548986;32;33920;-62
2023/07/18 04:25:07;;;;;;;14.55;4.10;;;;;;;24.29;100.00;100589.47;5548997;32;33799;-61
2023/07/18 04:28:10;;;;;;;6.43;3.55;;;;;;;24.36;100.00;100584.66;5548721;32;32351;-61
2023/07/18 04:31:13;;;;;;;8.25;3.70;;;;;;;24.43;100.00;100579.84;5549107;32;34825;-62
2023/07/18 04:34:20;;;;;;;7.97;3.55;;;;;;;24.47;100.00;100591.84;5548689;32;34696;-63
2023/07/18 04:37:23;;;;;;;7.90;3.60;;;;;;;24.41;100.00;100589.31;5548744;32;33722;-62
2023/07/18 04:40:26;;;;;;;4.93;3.37;;;;;;;24.50;100.00;100594.03;5535227;32;34204;-61
2023/07/18 04:43:29;;;;;;;8.02;2.97;;;;;;;24.50;100.00;100588.59;5548514;32;33753;-62
2023/07/18 04:46:32;;;;;;;6.95;3.40;;;;;;;24.47;100.00;100593.72;5533322;32;33346;-61
2023/07/18 04:49:36;;;;;;;5.68;3.28;;;;;;;24.42;100.00;100591.78;5546925;32;34492;-62
2023/07/18 04:52:40;;;;;;;5.70;3.50;;;;;;;24.42;100.00;100601.81;5548714;32;33507;-61
2023/07/18 04:55:44;;;;;;;8.85;3.50;;;;;;;24.46;100.00;100602.94;5534713;32;34794;-61
2023/07/18 04:58:47;;;;;;;5.30;3.25;;;;;;;24.46;100.00;100597.50;5548495;32;35204;-62
2023/07/18 05:01:53;;;;;;;7.75;3.33;;;;;;;24.45;100.00;100596.69;5535233;32;34140;-62
2023/07/18 05:04:56;;;;;;;8.80;3.67;;;;;;;24.47;100.00;100607.28;5532123;32;33854;-61
2023/07/18 05:08:00;;;;;;;4.95;3.15;;;;;;;24.47;100.00;100610.00;5534639;32;33945;-61
2023/07/18 05:11:02;;;;;;;14.52;3.87;;;;;;;24.53;100.00;100614.41;5547549;32;34907;-61
2023/07/18 05:14:05;;;;;;;6.85;3.45;;;;;;;24.60;100.00;100617.75;5548415;32;33790;-61
2023/07/18 05:17:08;;;;;;;11.00;3.67;;;;;;;24.52;100.00;100629.03;5534609;32;32504;-63
2023/07/18 05:20:12;;;;;;;6.75;3.83;;;;;;;24.55;100.00;100636.66;5537202;32;34595;-60
2023/07/18 05:23:15;;;;;;;12.85;3.47;;;;;;;24.72;100.00;100642.84;5542252;32;34306;-62
2023/07/18 05:26:18;;;;;;;9.52;3.67;;;;;;;24.84;99.99;100635.38;5548176;32;33551;-61
2023/07/18 05:29:21;;;;;;;5.75;3.55;;;;;;;24.69;100.00;100646.87;5548098;32;33961;-61
2023/07/18 05:32:25;;;;;;;6.35;3.45;;;;;;;24.70;99.63;100642.28;5534719;32;33833;-61
2023/07/18 05:35:28;;;;;;;10.60;3.45;;;;;;;24.76;99.54;100645.88;5548056;32;34752;-62
2023/07/18 05:38:31;;;;;;;6.07;3.55;;;;;;;24.75;98.85;100649.66;5547811;32;33828;-62
2023/07/18 05:41:34;;;;;;;14.85;3.95;;;;;;;24.79;96.89;100648.06;5534171;32;33587;-61
2023/07/18 05:44:37;;;;;;;5.57;3.65;;;;;;;24.91;97.31;100657.75;5546865;32;34906;-61
2023/07/18 05:47:40;;;;;;;5.30;3.35;;;;;;;25.07;95.96;100650.59;5534005;32;34246;-62
2023/07/18 05:50:43;;;;;;;7.65;4.15;;;;;;;24.93;95.84;100652.88;5531174;32;33746;-62
2023/07/18 05:53:46;;;;;;;5.18;3.42;;;;;;;24.89;96.45;100656.34;5532650;32;33804;-62
2023/07/18 05:56:49;;;;;;;10.18;3.80;;;;;;;24.85;97.09;100663.31;5547704;32;35403;-62
2023/07/18 05:59:52;;;;;;;11.02;3.78;;;;;;;25.07;95.46;100658.72;5547704;32;34253;-63
2023/07/18 06:02:55;;;;;;;8.30;3.62;;;;;;;24.99;98.22;100661.88;5547661;32;33579;-62
2023/07/18 06:06:01;;;;;;;7.07;3.60;;;;;;;25.01;99.08;100657.03;5546702;32;33637;-64
2023/07/18 06:09:03;;;;;;;11.63;3.60;;;;;;;25.13;96.87;100657.69;5534115;32;34852;-63
2023/07/18 06:12:07;;;;;;;3.92;3.20;;;;;;;25.32;96.31;100658.94;5533745;32;33867;-62
2023/07/18 06:15:12;;;;;;;8.80;3.75;;;;;;;25.50;94.17;100674.87;5547250;32;33580;-62
2023/07/18 06:18:15;;;;;;;9.82;3.50;;;;;;;25.39;94.99;100666.91;5546402;32;34540;-62
2023/07/18 06:21:21;;;;;;;10.15;3.62;;;;;;;25.61;92.79;100677.72;5547707;32;34282;-63
2023/07/18 06:24:25;;;;;;;11.63;3.45;;;;;;;25.86;91.80;100676.00;5518474;32;33984;-62
2023/07/18 06:27:28;;;;;;;6.70;3.25;;;;;;;25.75;89.22;100681.63;5535199;32;33315;-62
2023/07/18 06:30:31;;;;;;;7.80;3.80;;;;;;;25.73;89.42;100675.62;5517929;32;33856;-64
2023/07/18 06:33:34;;;;;;;9.43;3.50;;;;;;;25.85;86.66;100676.28;5539516;32;33802;-62
2023/07/18 06:36:37;;;;;;;8.80;3.62;;;;;;;25.98;86.01;100669.56;5523666;32;34073;-62
2023/07/18 06:39:40;;;;;;;9.35;3.50;;;;;;;26.01;85.12;100663.56;5537903;32;34892;-62
2023/07/18 06:42:44;;;;;;;30.15;4.40;;;;;;;26.10;84.70;100672.88;5536904;32;33839;-63
2023/07/18 06:45:49;;;;;;;9.23;3.85;;;;;;;26.25;81.85;100673.81;5535687;32;34682;-62
2023/07/18 06:48:52;;;;;;;6.40;3.45;;;;;;;26.10;83.67;100670.16;5523604;32;33762;-62
2023/07/18 06:51:55;;;;;;;7.10;3.22;;;;;;;26.22;82.58;100676.25;5538220;32;34003;-62
2023/07/18 06:54:58;;;;;;;6.82;3.67;;;;;;;26.17;83.02;100671.56;5528413;32;33892;-63
2023/07/18 06:58:01;;;;;;;10.70;3.60;;;;;;;26.20;80.61;100676.47;5525125;32;34228;-61
2023/07/18 07:01:08;;;;;;;4.30;3.17;;;;;;;26.51;78.83;100676.66;5538656;32;33556;-61
2023/07/18 07:04:10;;;;;;;5.72;3.55;;;;;;;26.70;75.97;100689.53;5525878;32;33283;-62
2023/07/18 07:07:14;;;;;;;17.55;4.03;;;;;;;26.84;74.96;100687.13;5542814;32;34625;-62
2023/07/18 07:10:17;;;;;;;9.57;3.42;;;;;;;27.02;73.26;100692.09;5525737;32;34424;-61
2023/07/18 07:13:20;;;;;;;11.75;3.60;;;;;;;27.30;72.30;100696.28;5528514;32;32642;-63
2023/07/18 07:16:23;;;;;;;11.65;3.45;;;;;;;27.62;69.61;100699.59;5546886;32;33505;-62
2023/07/18 07:19:26;;;;;;;9.52;3.45;;;;;;;27.90;66.74;100703.66;5520657;32;33834;-63
2023/07/18 07:22:30;;;;;;;7.68;3.50;;;;;;;27.97;65.61;100717.00;5546809;32;34217;-62
2023/07/18 07:25:33;;;;;;;8.70;3.10;;;;;;;28.16;64.58;100706.38;5547219;32;33753;-62
2023/07/18 07:28:36;;;;;;;9.30;3.72;;;;;;;27.65;64.42;100709.94;5546739;32;34544;-62
2023/07/18 07:31:39;;;;;;;7.90;3.17;;;;;;;27.99;63.77;100723.81;5546218;32;33962;-61
2023/07/18 07:34:43;;;;;;;6.75;2.78;;;;;;;28.23;62.06;100715.06;5546454;32;33742;-62
2023/07/18 07:37:47;;;;;;;6.85;3.15;;;;;;;28.52;60.05;100718.81;5531394;32;34099;-62
2023/07/18 07:40:50;;;;;;;5.32;3.22;;;;;;;28.92;56.36;100723.31;5532756;32;33688;-62
2023/07/18 07:49:05;;;;;;;6.43;2.90;;;;;;;29.92;52.96;100717.50;5545149;32;35451;-62
2023/07/18 07:52:08;;;;;;;11.95;3.20;;;;;;;30.97;49.93;100714.66;5523930;32;34428;-64
2023/07/18 07:55:11;;;;;;;5.95;2.97;;;;;;;31.37;46.27;100716.81;5526739;32;35331;-63
2023/07/18 07:58:15;;;;;;;6.95;3.15;;;;;;;31.96;44.41;100720.81;5513555;32;34380;-63
2023/07/18 08:01:17;;;;;;;6.35;2.90;;;;;;;31.56;45.94;100724.25;5522494;32;33166;-63
2023/07/18 08:04:21;;;;;;;5.22;2.90;;;;;;;31.27;44.44;100718.94;5494916;32;32402;-64
2023/07/18 08:07:25;;;;;;;6.35;2.92;;;;;;;31.12;42.94;100719.97;5507654;32;33584;-63
2023/07/18 08:10:28;;;;;;;14.60;3.00;;;;;;;30.91;42.22;100726.78;5516654;32;34099;-63
2023/07/18 08:13:31;;;;;;;6.32;2.90;;;;;;;31.03;43.74;100727.22;5521158;32;33068;-63
2023/07/18 08:16:34;;;;;;;9.40;3.25;;;;;;;30.84;42.40;100721.66;5507742;32;34322;-62
2023/07/18 08:19:37;;;;;;;7.12;3.00;;;;;;;31.33;41.64;100718.53;5510209;32;33800;-63
2023/07/18 08:22:40;;;;;;;10.10;3.03;;;;;;;31.61;40.91;100729.69;5493932;32;34525;-63
2023/07/18 08:25:46;;;;;;;8.07;2.87;;;;;;;31.59;39.25;100723.66;5507106;32;34875;-63
2023/07/18 08:28:49;;;;;;;7.25;3.30;;;;;;;30.39;42.15;100730.41;5494392;32;33716;-64
2023/07/18 08:31:53;;;;;;;6.87;3.00;;;;;;;30.55;42.15;100732.72;5509932;32;34252;-62
2023/07/18 08:34:57;;;;;;;7.15;3.30;;;;;;;30.51;42.97;100730.84;5496373;32;34949;-64
2023/07/18 08:37:59;;;;;;;6.68;3.30;;;;;;;30.27;42.85;100725.34;5509989;32;33744;-62
2023/07/18 08:41:03;;;;;;;6.57;3.35;;;;;;;29.96;43.68;100713.91;5509823;32;34004;-64
2023/07/18 08:44:08;;;;;;;9.50;3.67;;;;;;;29.41;43.90;100719.78;5508248;32;34895;-63
2023/07/18 08:47:13;;;;;;;10.98;3.50;;;;;;;29.48;44.12;100731.22;5515349;32;33811;-62
2023/07/18 08:50:16;;;;;;;8.63;3.22;;;;;;;30.10;41.63;100722.25;5533804;32;33864;-62
2023/07/18 08:53:20;;;;;;;9.40;3.30;;;;;;;29.97;41.78;100723.72;5533987;32;34493;-63
2023/07/18 08:56:24;;;;;;;11.02;3.30;;;;;;;30.04;41.60;100712.44;5539061;32;34617;-63
2023/07/18 08:59:28;;;;;;;15.55;3.62;;;;;;;31.36;40.11;100719.88;5537886;32;35182;-62
2023/07/18 09:02:31;;;;;;;10.13;3.67;;;;;;;31.58;39.34;100711.06;5534221;32;33717;-63
2023/07/18 09:05:36;;;;;;;7.60;3.50;;;;;;;31.63;39.44;100722.75;5530465;32;32448;-63
2023/07/18 09:08:42;;;;;;;7.37;3.15;;;;;;;32.70;37.52;100719.72;5541195;32;34222;-62
2023/07/18 09:11:59;;;;;;;8.38;3.00;;;;;;;34.30;34.52;100720.84;5547382;32;33835;-63
2023/07/18 09:15:07;;;;;;;6.55;2.97;;;;;;;35.11;32.88;100717.66;5535665;32;34702;-64
2023/07/18 09:18:12;;;;;;;7.68;3.15;;;;;;;35.15;32.14;100719.44;5529980;32;33828;-63
2023/07/18 09:21:16;;;;;;;10.10;3.12;;;;;;;34.91;32.42;100719.09;5529611;32;33306;-63
2023/07/18 09:24:30;;;;;;;11.85;3.53;;;;;;;35.64;31.42;100715.41;5532622;32;34551;-65
2023/07/18 09:27:35;;;;;;;5.95;3.10;;;;;;;33.42;33.13;100708.78;5515146;32;33990;-64
2023/07/18 09:30:39;;;;;;;7.35;3.17;;;;;;;34.62;32.20;100710.56;5528824;32;34476;-62
2023/07/18 09:33:42;;;;;;;8.27;3.17;;;;;;;35.85;29.83;100711.97;5515430;32;33895;-63
2023/07/18 09:36:59;;;;;;;18.23;3.00;;;;;;;35.51;30.54;100713.62;5532371;32;34217;-64
2023/07/18 09:40:02;;;;;;;5.72;3.15;;;;;;;32.73;32.40;100707.28;5542943;32;33498;-63
2023/07/18 09:43:06;;;;;;;15.05;3.40;;;;;;;30.87;34.91;100698.37;5530120;32;35051;-63
2023/07/18 09:46:12;;;;;;;7.85;3.12;;;;;;;31.33;35.54;100696.59;5528149;32;34274;-62
2023/07/18 09:49:16;;;;;;;9.43;3.33;;;;;;;30.92;35.55;100688.16;5528397;32;34099;-63
2023/07/18 09:52:25;;;;;;;7.87;3.10;;;;;;;30.18;36.71;100695.06;5528624;32;33657;-63
2023/07/18 09:55:31;;;;;;;6.75;2.92;;;;;;;31.72;34.13;100684.47;5515144;32;34751;-63
2023/07/18 09:58:39;;;;;;;9.13;3.40;;;;;;;30.86;35.34;100672.06;5514999;32;34397;-63
2023/07/18 10:01:42;;;;;;;6.50;3.33;;;;;;;31.80;34.49;100681.06;5528592;32;33763;-62
2023/07/18 10:04:46;;;;;;;5.87;3.25;;;;;;;31.33;34.92;100673.84;5527268;32;33910;-62
2023/07/18 10:07:49;;;;;;;8.63;3.10;;;;;;;31.36;34.78;100668.59;5528703;32;33872;-64
2023/07/18 10:11:03;;;;;;;8.00;2.70;;;;;;;31.66;34.90;100664.53;5514612;32;34093;-62
2023/07/18 10:14:06;;;;;;;5.47;2.70;;;;;;;32.91;30.08;100667.06;5532358;32;35359;-64
2023/07/18 10:17:09;;;;;;;7.10;2.87;;;;;;;33.79;28.26;100677.31;5547910;32;33667;-64
2023/07/18 10:20:19;;;;;;;7.75;3.00;;;;;;;35.33;27.07;100661.56;5547690;32;34491;-64
2023/07/18 10:23:40;;;;;;;6.97;2.60;;;;;;;35.97;25.78;100660.44;5543840;32;33893;-63
2023/07/18 10:26:46;;;;;;;7.93;2.75;;;;;;;34.09;26.84;100658.34;5528487;32;33752;-63
2023/07/18 10:30:05;;;;;;;5.90;2.70;;;;;;;35.38;26.29;100647.59;5528611;32;34566;-61
2023/07/18 10:33:08;;;;;;;5.97;2.50;;;;;;;36.77;24.57;100650.31;5514428;32;32331;-63
2023/07/18 10:36:24;;;;;;;8.38;2.60;;;;;;;35.50;26.18;100644.97;5514979;32;33553;-62
2023/07/18 10:39:40;;;;;;;7.32;2.70;;;;;;;34.13;27.62;100643.63;5527990;32;33753;-62
2023/07/18 10:42:43;;;;;;;9.90;2.65;;;;;;;32.47;29.63;100645.75;5529361;32;33854;-62
2023/07/18 10:45:46;;;;;;;7.72;2.70;;;;;;;33.71;28.82;100641.50;5516856;32;34015;-62
2023/07/18 10:48:50;;;;;;;7.78;2.95;;;;;;;34.28;27.72;100631.38;5528202;32;34113;-63
2023/07/18 10:51:54;;;;;;;8.75;2.90;;;;;;;32.65;29.30;100628.34;5545470;32;34358;-63
2023/07/18 10:54:58;;;;;;;7.50;2.83;;;;;;;33.94;28.38;100626.53;5547304;32;33861;-63
2023/07/18 10:58:01;;;;;;;5.87;2.60;;;;;;;33.54;28.37;100618.25;5533889;32;33577;-63
2023/07/18 11:01:05;;;;;;;5.43;2.87;;;;;;;36.15;26.25;100620.59;5547085;32;33681;-64
2023/07/18 11:04:07;;;;;;;7.05;2.60;;;;;;;35.25;26.47;100608.81;5547228;32;33915;-64
2023/07/18 11:07:11;;;;;;;6.90;2.50;;;;;;;36.86;25.01;100603.22;5533319;32;33782;-64
2023/07/18 11:10:14;;;;;;;8.18;2.85;;;;;;;35.57;25.87;100604.72;5528333;32;34692;-64
2023/07/18 11:13:18;;;;;;;6.18;2.83;;;;;;;36.02;25.66;100598.72;5531676;32;33191;-63
2023/07/18 11:16:21;;;;;;;5.37;2.60;;;;;;;36.47;26.13;100597.00;5533942;32;34143;-63
2023/07/18 11:19:25;;;;;;;8.30;2.95;;;;;;;38.66;23.51;100598.34;5527800;32;33832;-63
2023/07/18 11:22:28;;;;;;;7.72;2.85;;;;;;;37.79;23.97;100597.91;5528209;32;33691;-63
2023/07/18 11:25:33;;;;;;;8.05;2.85;;;;;;;37.08;25.07;100586.31;5514242;32;35067;-63
2023/07/18 11:28:36;;;;;;;6.72;3.08;;;;;;;37.17;24.54;100594.53;5514096;32;33960;-64
2023/07/18 11:31:40;;;;;;;9.25;3.00;;;;;;;36.52;25.56;100582.97;5514906;32;35041;-62
2023/07/18 11:34:56;;;;;;;6.87;2.50;;;;;;;38.01;24.75;100595.88;5529926;32;33751;-62
2023/07/18 11:37:59;;;;;;;6.40;2.67;;;;;;;37.98;24.14;100577.97;5527686;32;33454;-64
2023/07/18 11:41:02;;;;;;;6.85;2.87;;;;;;;38.57;23.20;100583.00;5527599;32;34343;-63
2023/07/18 11:44:08;;;;;;;6.50;2.75;;;;;;;38.39;23.77;100579.69;5527632;32;33816;-63
2023/07/18 11:47:10;;;;;;;6.20;3.10;;;;;;;39.23;23.34;100561.12;5527402;32;33960;-63
2023/07/18 11:50:14;;;;;;;5.32;2.55;;;;;;;39.39;23.01;100561.19;5527237;32;33678;-64
2023/07/18 11:53:27;;;;;;;8.48;2.83;;;;;;;39.95;22.14;100568.19;5527874;32;33779;-64
2023/07/18 11:56:31;;;;;;;6.07;2.70;;;;;;;38.49;23.11;100556.25;5513775;32;34419;-64
2023/07/18 11:59:34;;;;;;;7.35;2.75;;;;;;;38.62;23.53;100543.94;5527310;32;33860;-64
2023/07/18 12:02:37;;;;;;;4.35;3.10;;;;;;;42.08;20.80;100556.53;5513738;32;33625;-64
2023/07/18 12:05:40;;;;;;;6.68;3.00;;;;;;;39.61;22.77;100545.87;5529351;32;34368;-64
2023/07/18 12:08:43;;;;;;;8.98;3.10;;;;;;;38.65;23.24;100540.47;5529928;32;34545;-64
2023/07/18 12:11:46;;;;;;;5.45;2.62;;;;;;;42.30;20.07;100542.94;5530873;32;33715;-64
2023/07/18 12:14:52;;;;;;;7.78;2.80;;;;;;;42.53;19.68;100549.22;5549111;32;34292;-64
2023/07/18 12:17:56;;;;;;;5.78;2.70;;;;;;;41.77;19.75;100539.31;5535278;32;33980;-65
2023/07/18 12:20:59;;;;;;;5.25;2.60;;;;;;;40.52;21.37;100527.00;5518292;32;33874;-64
2023/07/18 12:24:04;;;;;;;6.30;2.75;;;;;;;39.69;21.82;100517.12;5513785;32;34505;-63
2023/07/18 12:27:07;;;;;;;5.12;2.92;;;;;;;40.15;21.98;100515.44;5524052;32;33689;-64
2023/07/18 12:30:12;;;;;;;6.20;2.75;;;;;;;42.01;20.29;100524.97;5529622;32;34609;-63
2023/07/18 12:33:15;;;;;;;6.12;2.80;;;;;;;41.68;20.33;100530.41;5529485;32;34384;-64
2023/07/18 12:36:19;;;;;;;7.80;2.95;;;;;;;38.23;23.12;100524.16;5529619;32;34453;-64
2023/07/18 12:39:22;;;;;;;6.93;2.87;;;;;;;39.47;21.98;100513.00;5529835;32;33850;-65
2023/07/18 12:42:26;;;;;;;9.98;2.70;;;;;;;40.86;20.96;100515.00;5529643;32;33675;-64
2023/07/18 12:45:29;;;;;;;5.60;2.60;;;;;;;41.40;20.59;100514.00;5515556;32;33624;-63
2023/07/18 12:48:32;;;;;;;5.40;2.80;;;;;;;40.93;20.99;100512.34;5529155;32;34241;-63
2023/07/18 12:51:35;;;;;;;5.62;2.70;;;;;;;42.34;19.88;100513.09;5528864;32;33643;-63
2023/07/18 12:54:41;;;;;;;6.00;2.80;;;;;;;42.28;20.03;100503.47;5516245;32;33858;-64
2023/07/18 12:57:44;;;;;;;7.82;2.85;;;;;;;41.51;20.48;100496.31;5529158;32;35084;-64
2023/07/18 13:00:47;;;;;;;6.80;2.65;;;;;;;39.21;21.95;100485.78;5515459;32;34454;-64
2023/07/18 13:03:49;;;;;;;4.85;2.47;;;;;;;43.28;18.75;100479.09;5515728;32;33896;-64
2023/07/18 13:06:53;;;;;;;6.43;2.55;;;;;;;43.40;18.67;100483.56;5528919;32;34404;-64
2023/07/18 13:09:55;;;;;;;4.60;2.85;;;;;;;42.54;19.15;100475.50;5516964;32;34703;-63
2023/07/18 13:12:58;;;;;;;12.02;2.62;;;;;;;46.01;16.79;100477.19;5528945;32;34006;-64
2023/07/18 13:16:01;;;;;;;9.57;2.62;;;;;;;45.25;17.28;100483.28;5515395;32;34468;-64
2023/07/18 13:19:04;;;;;;;8.00;2.40;;;;;;;44.65;17.77;100471.94;5515805;32;34058;-64
2023/07/18 13:22:07;;;;;;;11.40;2.80;;;;;;;41.84;19.95;100470.56;5515558;32;35255;-63
2023/07/18 13:25:10;;;;;;;17.17;2.95;;;;;;;42.47;19.86;100465.06;5529142;32;34430;-64
2023/07/18 13:28:13;;;;;;;9.05;3.25;;;;;;;41.28;20.84;100459.31;5528720;32;33785;-64
2023/07/18 13:31:16;;;;;;;13.02;3.03;;;;;;;45.03;17.68;100462.03;5537678;32;33801;-63
2023/07/18 13:34:21;;;;;;;9.77;3.03;;;;;;;45.06;17.57;100463.25;5515602;32;33374;-63
2023/07/18 13:37:24;;;;;;;5.62;2.70;;;;;;;44.67;18.00;100457.56;5529226;32;34308;-64
2023/07/18 13:40:27;;;;;;;7.45;2.90;;;;;;;44.00;18.69;100444.91;5548535;32;33614;-65
2023/07/18 13:43:30;;;;;;;8.23;2.75;;;;;;;41.67;20.06;100436.87;5548066;32;33716;-64
2023/07/18 13:46:33;;;;;;;9.32;3.10;;;;;;;40.02;21.48;100442.50;5534242;32;33798;-64
2023/07/18 13:49:36;;;;;;;5.47;2.95;;;;;;;40.77;21.28;100437.31;5534115;32;34255;-64
2023/07/18 13:52:52;;;;;;;5.82;2.72;;;;;;;43.42;19.26;100433.72;5535067;32;33811;-64
2023/07/18 13:55:56;;;;;;;20.45;3.30;;;;;;;42.21;20.00;100442.00;5533796;32;34523;-64
2023/07/18 13:58:59;;;;;;;7.43;3.00;;;;;;;40.26;21.79;100433.91;5546606;32;34382;-63
2023/07/18 14:02:03;;;;;;;6.12;2.72;;;;;;;42.17;20.02;100436.38;5547033;32;33781;-64
2023/07/18 14:05:07;;;;;;;11.23;2.80;;;;;;;39.16;22.61;100421.41;5533132;32;35140;-64
2023/07/18 14:08:10;;;;;;;6.60;3.17;;;;;;;41.52;20.80;100427.50;5533125;32;33250;-64
2023/07/18 14:11:14;;;;;;;23.48;3.58;;;;;;;43.30;19.28;100420.84;5547274;32;33941;-63
2023/07/18 14:14:19;;;;;;;11.75;3.03;;;;;;;42.80;19.87;100424.38;5531222;32;33802;-63
2023/07/18 14:17:22;;;;;;;5.12;3.00;;;;;;;42.56;19.80;100430.50;5547068;32;34541;-64